Latest Weather Observations for Leonora Airport

IDW60801

Issued at 6:03 pm WST Monday 26 September 2016 (issued every 30 minutes, with the page automatically refreshed every 10 minutes)

About weather observations | Map of weather stations | Latest weather observations for WA | Other Formats
Station Details ID: 012241 Name: LEONORA AERO Lat: -28.88 Lon: 121.32 Height: 370.0 m
Data from the previous 72 hours. | See also: Recent months at Leonora Airport
Date/Time
WST
Temp
°C
App
Temp
°C
Dew
Point
°C
Rel
Hum
%
Delta-T
°C
Wind Press
QNH
hPa
Press
MSL
hPa
Rain since
9am
mm
Dir  Spd
km/h
Gust
km/h
Spd
kts
Gust
kts
26/06:00pm 20.2 15.9 -4.8 18 10.2 SSE 9 13 5 7 1016.6 1015.7 0.0
26/05:30pm 21.6 16.9 -5.3 16 11.1 S 11 17 6 9 1016.5 1015.6 0.0
26/05:00pm 22.5 18.8 -4.5 16 11.4 SW 6 11 3 6 1016.2 1015.2 0.0
26/04:30pm 22.4 17.7 -4.6 16 11.3 S 11 20 6 11 1016.0 1015.0 0.0
26/04:00pm 22.3 18.5 -3.9 17 11.1 S 7 13 4 7 1015.9 1014.9 0.0
26/03:30pm 22.6 17.6 -4.5 16 11.4 SW 13 19 7 10 1016.0 1015.0 0.0
26/03:00pm 22.5 18.4 -3.0 18 11.1 SW 9 20 5 11 1016.0 1015.0 0.0
26/02:30pm 21.6 16.1 -2.3 20 10.4 W 17 24 9 13 1016.1 1015.1 0.0
26/02:00pm 21.6 18.1 -1.0 22 10.1 WNW 7 17 4 9 1016.4 1015.5 0.0
26/01:30pm 20.5 16.4 -0.2 25 9.3 ESE 11 17 6 9 1016.9 1016.0 0.0
26/01:00pm 20.5 16.1 0.4 26 9.2 SE 13 20 7 11 1017.4 1016.5 0.0
26/12:30pm 19.8 16.5 0.3 27 8.8 SSW 7 17 4 9 1017.9 1017.0 0.0
26/12:00pm 18.2 14.5 -0.1 29 8.1 SSE 9 17 5 9 1018.7 1017.8 0.0
26/11:30am 18.2 14.6 0.8 31 7.8 WSW 9 17 5 9 1019.1 1018.2 0.0
26/11:00am 17.3 13.0 0.9 33 7.3 SSE 13 20 7 11 1019.7 1018.8 0.0
26/10:30am 16.9 12.3 1.8 36 6.9 NE 15 20 8 11 1019.9 1019.0 0.0
26/10:00am 15.8 12.0 1.9 39 6.3 E 11 19 6 10 1020.4 1019.5 0.0
26/09:30am 15.8 11.8 2.9 42 6.0 ENE 13 20 7 11 1020.6 1019.7 0.0
26/09:00am 14.4 10.4 2.9 46 5.2 ENE 13 20 7 11 1020.8 1019.9 0.0
26/08:30am 13.5 8.5 3.8 52 4.5 ENE 19 26 10 14 1020.6 1019.7 0.0
26/08:00am 12.7 7.7 3.4 53 4.2 ENE 19 24 10 13 1020.6 1019.7 0.0
26/07:30am 11.8 6.6 3.3 56 3.8 ENE 20 26 11 14 1020.3 1019.4 0.0
26/07:00am 11.3 6.7 3.8 60 3.4 E 17 20 9 11 1020.0 1019.1 0.0
26/06:30am 10.1 7.0 3.8 65 2.8 ESE 9 15 5 8 1019.7 1018.8 0.0
26/06:00am 9.0 5.6 3.8 70 2.3 E 11 15 6 8 1018.9 1018.0 0.0
26/05:30am 8.7 5.6 3.7 71 2.2 SE 9 11 5 6 1018.7 1017.8 0.0
26/05:00am 9.3 5.9 3.9 69 2.4 E 11 15 6 8 1017.9 1017.0 0.0
26/04:30am 9.7 6.3 4.1 68 2.5 E 11 15 6 8 1017.5 1016.6 0.0
26/04:00am 10.2 6.4 4.1 66 2.8 E 13 19 7 10 1017.2 1016.3 0.0
26/03:30am 10.7 6.6 4.2 64 3.0 ESE 15 19 8 10 1016.9 1016.0 0.0
26/03:00am 11.0 6.5 4.2 63 3.1 SE 17 26 9 14 1016.8 1015.9 0.0
26/02:30am 11.6 6.5 4.3 61 3.4 SE 20 28 11 15 1016.9 1016.0 0.0
26/02:00am 12.2 7.2 3.7 56 3.9 SE 19 30 10 16 1016.9 1016.0 0.0
26/01:30am 12.8 8.4 2.6 50 4.6 SE 15 20 8 11 1017.0 1016.1 0.0
26/01:00am 13.3 8.5 2.5 48 4.8 SE 17 22 9 12 1017.1 1016.2 0.0
26/12:30am 13.7 8.8 2.3 46 5.1 SSE 17 24 9 13 1017.0 1016.1 0.0
26/12:00am 13.6 9.9 2.2 46 5.1 SSE 11 20 6 11 1017.1 1016.2 0.0
 
Date/Time
WST
Temp
°C
App
Temp
°C
Dew
Point
°C
Rel
Hum
%
Delta-T
°C
Wind Press
QNH
hPa
Press
MSL
hPa
Rain since
9am
mm
Dir  Spd
km/h
Gust
km/h
Spd
kts
Gust
kts
25/11:30pm 13.7 9.8 1.4 43 5.4 SSE 11 17 6 9 1017.0 1016.1 0.0
25/11:00pm 14.3 9.6 0.9 40 5.8 SSE 15 19 8 10 1016.9 1016.0 0.0
25/10:30pm 14.7 10.8 0.9 39 6.1 SSE 11 15 6 8 1017.0 1016.1 0.0
25/10:00pm 14.9 10.5 0.4 37 6.3 S 13 19 7 10 1017.0 1016.1 0.0
25/09:30pm 15.3 10.5 -0.1 35 6.6 S 15 20 8 11 1016.8 1015.9 0.0
25/09:00pm 15.5 10.9 -1.1 32 7.0 S 13 19 7 10 1016.6 1015.7 0.0
25/08:30pm 15.8 10.6 -3.1 27 7.7 S 15 20 8 11 1016.3 1015.4 0.0
25/08:00pm 15.9 12.1 -3.6 26 7.8 SSE 7 9 4 5 1015.8 1014.8 0.0
25/07:30pm 16.9 12.7 -4.3 23 8.5 S 9 9 5 5 1015.5 1014.5 0.0
25/07:00pm 17.7 13.5 -4.3 22 8.9 S 9 11 5 6 1015.0 1014.1 0.0
25/06:30pm 18.9 14.6 -4.5 20 9.5 S 9 15 5 8 1014.6 1013.7 0.0
25/06:00pm 20.1 14.7 -4.9 18 10.2 S 15 20 8 11 1014.1 1013.2 0.0
25/05:30pm 21.1 15.2 -5.7 16 10.9 SSE 17 24 9 13 1013.7 1012.7 0.0
25/05:00pm 22.3 17.2 -5.6 15 11.5 SW 13 24 7 13 1013.4 1012.4 0.0
25/04:30pm 22.3 16.1 -4.7 16 11.3 SW 19 30 10 16 1013.1 1012.1 0.0
25/04:00pm 23.3 17.8 -5.7 14 12.0 SW 15 24 8 13 1012.7 1011.7 0.0
25/03:30pm 22.8 17.2 -6.1 14 11.8 SW 15 28 8 15 1012.6 1011.6 0.0
25/03:00pm 23.0 17.4 -5.9 14 11.9 SW 15 46 8 25 1012.3 1011.4 0.0
25/02:30pm 21.9 15.7 -5.0 16 11.2 W 19 30 10 16 1012.6 1011.6 0.0
25/02:00pm 22.3 15.9 -4.7 16 11.3 SW 20 32 11 17 1012.7 1011.7 0.0
25/01:30pm 21.6 16.7 -3.7 18 10.7 W 13 22 7 12 1012.9 1011.9 0.0
25/01:00pm 21.1 15.0 -2.7 20 10.3 WSW 20 28 11 15 1013.3 1012.3 0.0
25/12:30pm 21.6 15.7 -2.3 20 10.4 SW 19 30 10 16 1013.7 1012.7 0.0
25/12:00pm 20.4 16.0 -2.6 21 9.9 W 11 20 6 11 1014.1 1013.2 0.0
25/11:30am 20.4 16.1 -2.0 22 9.7 WNW 11 17 6 9 1014.3 1013.4 0.0
25/11:00am 19.6 15.6 -2.1 23 9.3 S 9 20 5 11 1014.8 1013.9 0.0
25/10:30am 19.3 14.5 -2.3 23 9.2 SSW 13 22 7 12 1015.0 1014.1 0.0
25/10:00am 18.4 13.6 -2.5 24 8.8 SSE 13 20 7 11 1015.5 1014.5 0.0
25/09:30am 17.5 13.2 -1.7 27 8.2 S 11 20 6 11 1015.6 1014.6 0.0
25/09:00am 16.6 11.9 -2.0 28 7.8 SSE 13 20 7 11 1015.7 1014.7 0.0
25/08:30am 15.2 10.2 -1.4 32 7.0 SSE 15 20 8 11 1015.6 1014.6 0.0
25/08:00am 14.1 9.4 -1.5 34 6.5 S 13 20 7 11 1015.6 1014.6 0.0
25/07:30am 12.0 7.3 -1.5 39 5.5 SSE 13 19 7 10 1015.3 1014.4 0.0
25/07:00am 10.5 5.8 -1.9 42 4.9 S 13 17 7 9 1015.2 1014.3 0.0
25/06:30am 8.7 6.0 -2.3 46 4.2 SSW 2 7 1 4 1014.9 1014.0 0.0
25/06:00am 7.6 4.1 -3.0 47 3.9 SW 6 7 3 4 1014.7 1013.8 0.0
25/05:30am 7.6 4.1 -2.7 48 3.9 SSE 6 9 3 5 1014.3 1013.4 0.0
25/05:00am 8.1 4.4 -2.8 46 4.1 SSE 7 9 4 5 1013.9 1012.9 0.0
25/04:30am 8.5 4.4 -3.3 43 4.4 S 9 13 5 7 1013.4 1012.4 0.0
25/04:00am 8.8 4.2 -3.7 41 4.6 S 11 13 6 7 1013.1 1012.1 0.0
25/03:30am 7.7 4.0 -4.4 42 4.4 S 6 13 3 7 1013.1 1012.1 0.0
25/03:00am 7.3 4.0 -4.7 42 4.3 SSW 4 6 2 3 1012.8 1011.8 0.0
25/02:30am 7.7 4.0 -5.0 40 4.5 SW 6 7 3 4 1012.7 1011.7 0.0
25/02:00am 8.6 4.9 -4.9 38 4.9 WSW 6 9 3 5 1012.6 1011.6 0.0
25/01:30am 9.0 5.3 -4.9 37 5.0 WSW 6 7 3 4 1012.4 1011.5 0.0
25/01:00am 9.5 6.5 -4.8 36 5.2 SW 2 6 1 3 1012.6 1011.6 0.0
25/12:30am 10.0 6.3 -4.7 35 5.4 SSW 6 9 3 5 1012.7 1011.7 0.0
25/12:00am 10.6 7.6 -5.0 33 5.7 WSW 2 7 1 4 1013.0 1012.0 0.0
 
Date/Time
WST
Temp
°C
App
Temp
°C
Dew
Point
°C
Rel
Hum
%
Delta-T
°C
Wind Press
QNH
hPa
Press
MSL
hPa
Rain since
9am
mm
Dir  Spd
km/h
Gust
km/h
Spd
kts
Gust
kts
24/11:30pm 11.1 7.4 -4.9 32 5.9 S 6 7 3 4 1013.1 1012.1 0.0
24/11:00pm 11.7 7.0 -5.3 30 6.3 S 11 17 6 9 1013.4 1012.4 0.0
24/10:30pm 13.3 8.6 -4.8 28 6.9 NE 11 13 6 7 1013.3 1012.3 0.0
24/10:00pm 13.4 9.7 -4.2 29 6.8 NE 6 9 3 5 1013.5 1012.5 0.0
24/09:30pm 13.3 9.5 -3.9 30 6.7 NE 7 9 4 5 1013.8 1012.8 0.0
24/09:00pm 13.3 10.8 -4.3 29 6.8 CALM 0 0 0 0 1013.8 1012.8 0.0
24/08:30pm 13.8 11.3 -4.4 28 7.0 CALM 0 0 0 0 1014.1 1013.2 0.0
24/08:00pm 14.6 12.0 -5.2 25 7.6 CALM 0 0 0 0 1014.1 1013.2 0.0
24/07:30pm 15.1 12.0 -5.9 23 8.0 SSW 2 7 1 4 1014.1 1013.2 0.0
24/07:00pm 16.2 11.8 -6.1 21 8.5 SW 9 9 5 5 1013.9 1012.9 0.0
24/06:30pm 17.5 13.1 -6.3 19 9.2 WSW 9 11 5 6 1013.7 1012.7 0.0
24/06:00pm 18.7 14.2 -6.8 17 9.9 WSW 9 13 5 7 1013.4 1012.4 0.0
24/05:30pm 19.8 14.4 -8.4 14 10.7 W 13 19 7 10 1013.2 1012.2 0.0
24/05:00pm 20.4 16.4 -7.1 15 10.8 WNW 6 13 3 7 1013.1 1012.1 0.0
24/04:30pm 20.5 16.0 -7.0 15 10.8 NNW 9 15 5 8 1013.0 1012.0 0.0
24/04:00pm 20.1 15.6 -7.3 15 10.7 NW 9 24 5 13 1012.8 1011.8 0.0
24/03:30pm 20.1 15.6 -7.3 15 10.7 NNW 9 15 5 8 1012.7 1011.7 0.0
24/03:00pm 20.4 15.9 -7.1 15 10.8 SSW 9 17 5 9 1012.8 1011.8 0.0
24/02:30pm 20.5 16.5 -5.4 17 10.5 SW 7 17 4 9 1012.9 1011.9 0.0
24/02:00pm 19.9 15.6 -4.4 19 10.0 ENE 9 17 5 9 1013.1 1012.1 0.0
24/01:30pm 18.8 14.9 -4.6 20 9.5 NW 7 17 4 9 1013.9 1012.9 0.0
24/01:00pm 18.3 14.0 -4.4 21 9.2 WSW 9 17 5 9 1014.3 1013.4 0.0
24/12:30pm 18.2 14.0 -3.8 22 9.0 SSE 9 17 5 9 1014.8 1013.9 0.0
24/12:00pm 17.8 14.1 -3.0 24 8.6 ESE 7 17 4 9 1015.5 1014.5 0.0
24/11:30am 16.3 12.6 -3.2 26 8.0 SW 7 13 4 7 1016.0 1015.0 0.0
24/11:00am 15.7 11.6 -2.7 28 7.5 SSE 9 17 5 9 1016.6 1015.7 0.0
24/10:30am 14.7 11.0 -2.7 30 7.1 N 7 15 4 8 1016.7 1015.8 0.0
24/10:00am 14.9 11.0 -1.6 32 6.9 SSE 9 17 5 9 1017.1 1016.2 0.0
24/09:30am 14.2 10.7 -1.0 35 6.4 NE 7 15 4 8 1017.7 1016.8 0.0
24/09:00am 13.9 9.8 -0.5 37 6.1 ENE 11 19 6 10 1017.9 1017.0 0.0
24/08:30am 12.7 7.5 -0.2 41 5.4 ENE 17 20 9 11 1017.8 1016.9 0.0
24/08:00am 12.4 7.3 0.5 44 5.1 E 17 20 9 11 1017.6 1016.7 0.0
24/07:30am 11.1 6.3 0.2 47 4.6 E 15 24 8 13 1017.4 1016.5 0.0
24/07:00am 10.1 5.7 0.2 50 4.1 ESE 13 20 7 11 1017.3 1016.4 0.0
24/06:30am 8.2 4.6 0.7 59 3.1 SE 9 13 5 7 1017.1 1016.2 0.0
24/06:00am 6.1 2.4 0.2 66 2.3 S 9 11 5 6 1016.9 1016.0 0.0
24/05:30am 5.9 2.6 0.3 67 2.2 S 7 9 4 5 1016.4 1015.5 0.0
24/05:00am 6.2 3.1 -0.1 64 2.5 S 6 7 3 4 1016.0 1015.0 0.0
24/04:30am 7.2 3.9 0.4 62 2.7 SSW 7 9 4 5 1015.6 1014.6 0.0
24/04:00am 7.7 4.4 0.4 60 3.0 S 7 9 4 5 1015.3 1014.4 0.0
24/03:30am 8.4 5.3 0.1 56 3.4 SSW 6 7 3 4 1015.0 1014.1 0.0
24/03:00am 9.5 6.3 0.7 54 3.7 SSW 7 9 4 5 1014.8 1013.9 0.0
24/02:30am 10.6 6.6 0.6 50 4.2 S 11 15 6 8 1014.6 1013.7 0.0
24/02:00am 11.4 7.0 0.5 47 4.6 S 13 19 7 10 1014.5 1013.6 0.0
24/01:30am 12.2 7.4 0.3 44 5.0 S 15 19 8 10 1014.6 1013.7 0.0
24/01:00am 12.7 7.2 0.5 43 5.2 S 19 28 10 15 1014.6 1013.7 0.0
24/12:30am 13.1 8.0 0.5 42 5.4 S 17 26 9 14 1014.7 1013.8 0.0
24/12:00am 13.1 8.0 0.8 43 5.3 SSW 17 24 9 13 1014.7 1013.8 0.0
 
Date/Time
WST
Temp
°C
App
Temp
°C
Dew
Point
°C
Rel
Hum
%
Delta-T
°C
Wind Press
QNH
hPa
Press
MSL
hPa
Rain since
9am
mm
Dir  Spd
km/h
Gust
km/h
Spd
kts
Gust
kts
23/11:30pm 12.9 9.4 1.3 45 5.0 SSW 9 13 5 7 1014.6 1013.7 0.0
23/11:00pm 12.8 8.6 1.5 46 4.9 SSW 13 17 7 9 1014.7 1013.8 0.0
23/10:30pm 12.6 9.7 1.6 47 4.8 SSW 6 9 3 5 1014.8 1013.9 0.0
23/10:00pm 13.5 10.0 1.5 44 5.3 S 9 11 5 6 1014.7 1013.8 0.0
23/09:30pm 14.1 10.6 1.4 42 5.6 S 9 13 5 7 1014.7 1013.8 0.0
23/09:00pm 14.8 9.8 1.3 40 6.0 S 17 26 9 14 1014.6 1013.7 0.0
23/08:30pm 15.3 10.6 0.7 37 6.4 SSW 15 19 8 10 1014.3 1013.4 0.0
23/08:00pm 15.4 11.1 0.8 37 6.4 SSW 13 20 7 11 1014.1 1013.2 0.0
23/07:30pm 15.5 11.0 -0.3 34 6.8 SSW 13 17 7 9 1013.8 1012.8 0.0
23/07:00pm 16.0 11.4 -1.1 31 7.3 SW 13 17 7 9 1013.3 1012.3 0.0
23/06:30pm 16.7 11.4 -0.9 30 7.6 SW 17 24 9 13 1012.8 1011.8 0.0

Other Formats:

Comma delimited format used in spreadsheet applications
http://www.bom.gov.au/fwo/IDW60801/IDW60801.94450.axf

JavaScript Object Notation format (JSON) in row-major order
http://www.bom.gov.au/fwo/IDW60801/IDW60801.94450.json